createdAt,value
2018-09-22T00:02:17.565Z,95.20
2018-09-22T00:04:47.396Z,95.30
2018-09-22T00:07:17.097Z,95.40
2018-09-22T00:09:55.805Z,95.50
2018-09-22T00:12:40.084Z,95.80
2018-09-22T00:15:11.893Z,95.60
2018-09-22T00:17:42.451Z,95.60
2018-09-22T00:20:13.498Z,95.50
2018-09-22T00:22:49.069Z,95.50
2018-09-22T00:25:22.269Z,95.80
2018-09-22T00:27:53.303Z,96.00
2018-09-22T00:30:25.849Z,95.50
2018-09-22T00:32:56.194Z,95.50
2018-09-22T00:35:26.414Z,95.40
2018-09-22T00:37:57.713Z,95.80
2018-09-22T00:40:28.908Z,95.80
2018-09-22T00:42:59.000Z,95.80
2018-09-22T00:45:28.681Z,95.80
2018-09-22T00:47:59.511Z,95.80
2018-09-22T00:50:30.231Z,95.90
2018-09-22T00:53:00.890Z,95.70
2018-09-22T00:55:42.290Z,95.60
2018-09-22T00:58:14.818Z,96.20
2018-09-22T01:00:45.869Z,96.20
2018-09-22T01:03:24.114Z,96.50
2018-09-22T01:05:57.704Z,96.60
2018-09-22T01:08:27.345Z,96.70
2018-09-22T01:10:59.500Z,96.90
2018-09-22T01:13:28.774Z,96.90
2018-09-22T01:15:58.872Z,97.00
2018-09-22T01:18:32.675Z,96.80
2018-09-22T01:21:02.122Z,97.00
2018-09-22T01:23:31.801Z,97.60
2018-09-22T01:26:01.593Z,97.30
2018-09-22T01:28:32.471Z,97.70
2018-09-22T01:31:03.345Z,98.00
2018-09-22T01:33:32.670Z,98.30
2018-09-22T01:36:02.108Z,98.30
2018-09-22T01:38:31.967Z,98.40
2018-09-22T01:41:01.928Z,98.40
2018-09-22T01:43:31.078Z,98.70
2018-09-22T01:46:08.077Z,98.80
2018-09-22T01:48:37.932Z,98.70
2018-09-22T01:51:07.079Z,98.90
2018-09-22T01:53:44.922Z,99.00
2018-09-22T01:56:25.746Z,99.00
2018-09-22T01:58:56.038Z,99.10
2018-09-22T02:01:26.010Z,99.30
2018-09-22T02:03:57.181Z,99.60
2018-09-22T02:06:27.650Z,99.90
2018-09-22T02:09:01.054Z,99.90
2018-09-22T02:11:33.210Z,99.90
2018-09-22T02:14:09.495Z,99.90
2018-09-22T02:16:40.868Z,99.90
2018-09-22T02:19:11.034Z,99.90
2018-09-22T02:21:40.587Z,99.90
2018-09-22T02:24:10.189Z,99.90
2018-09-22T02:26:40.174Z,99.90
2018-09-22T02:29:10.666Z,99.90
2018-09-22T02:31:53.631Z,99.90
2018-09-22T02:34:24.803Z,99.90
2018-09-22T02:36:54.275Z,99.90
2018-09-22T02:39:27.401Z,99.90
2018-09-22T02:41:56.697Z,99.90
2018-09-22T02:44:26.509Z,99.90
2018-09-22T02:46:56.733Z,99.90
2018-09-22T02:49:26.278Z,99.90
2018-09-22T02:51:55.657Z,99.90
2018-09-22T02:54:26.775Z,99.90
2018-09-22T02:56:57.718Z,99.90
2018-09-22T02:59:26.993Z,99.90
2018-09-22T03:02:01.279Z,99.90
2018-09-22T03:04:30.807Z,99.90
2018-09-22T03:07:00.162Z,99.90
2018-09-22T03:09:29.531Z,99.90
2018-09-22T03:11:58.679Z,99.90
2018-09-22T03:14:56.003Z,99.90
2018-09-22T03:17:45.624Z,99.90
2018-09-22T03:23:00.632Z,99.90
2018-09-22T03:25:34.610Z,99.90
2018-09-22T03:28:05.426Z,99.90
2018-09-22T03:30:35.758Z,99.90
2018-09-22T03:33:05.260Z,99.90
2018-09-22T03:35:35.689Z,99.90
2018-09-22T03:38:05.478Z,99.90
2018-09-22T03:40:34.953Z,99.90
2018-09-22T03:43:04.376Z,99.90
2018-09-22T03:45:33.954Z,99.90
2018-09-22T03:48:03.955Z,99.90
2018-09-22T03:50:33.893Z,99.90
2018-09-22T03:53:03.570Z,99.90
2018-09-22T03:55:32.848Z,99.90
2018-09-22T03:58:02.224Z,99.90
2018-09-22T04:00:33.364Z,99.90
2018-09-22T04:03:02.908Z,99.90
2018-09-22T04:05:32.191Z,99.90
2018-09-22T04:08:01.448Z,99.90
2018-09-22T04:10:30.556Z,99.90
2018-09-22T04:13:00.697Z,99.90
2018-09-22T04:15:29.929Z,99.90
2018-09-22T04:17:59.202Z,99.90
2018-09-22T04:20:28.366Z,99.90
2018-09-22T04:22:57.967Z,99.90
2018-09-22T04:25:27.450Z,99.90
2018-09-22T04:27:56.526Z,99.90
2018-09-22T04:30:25.809Z,99.90
2018-09-22T04:32:55.004Z,99.90
2018-09-22T04:35:24.305Z,99.90
2018-09-22T04:37:53.582Z,99.90
2018-09-22T04:40:23.642Z,99.90
2018-09-22T04:42:52.939Z,99.90
2018-09-22T04:45:22.013Z,99.90
2018-09-22T04:47:52.162Z,99.90
2018-09-22T04:50:22.069Z,99.90
2018-09-22T04:52:51.143Z,99.90
2018-09-22T04:55:20.528Z,99.90
2018-09-22T04:57:49.722Z,99.90
2018-09-22T05:00:19.257Z,99.90
2018-09-22T05:02:49.127Z,99.90
2018-09-22T05:05:18.258Z,99.90
2018-09-22T05:07:48.067Z,99.90
2018-09-22T05:10:17.339Z,99.90
2018-09-22T05:12:46.613Z,99.90
2018-09-22T05:15:15.687Z,99.90
2018-09-22T05:17:45.631Z,99.90
2018-09-22T05:20:14.827Z,99.90
2018-09-22T05:22:44.291Z,99.90
2018-09-22T05:25:13.525Z,99.90
2018-09-22T05:27:42.775Z,99.90
2018-09-22T05:30:12.361Z,99.90
2018-09-22T05:32:43.148Z,99.90
2018-09-22T05:35:12.814Z,99.90
2018-09-22T05:37:42.155Z,99.90
2018-09-22T05:40:12.413Z,99.90
2018-09-22T05:42:41.846Z,99.90
2018-09-22T05:45:11.583Z,99.90
2018-09-22T05:47:41.130Z,99.90
2018-09-22T05:50:10.765Z,99.90
2018-09-22T05:52:40.175Z,99.90
2018-09-22T05:55:09.765Z,99.90
2018-09-22T05:57:39.240Z,99.90
2018-09-22T06:00:08.967Z,99.90
2018-09-22T06:02:40.223Z,99.90
2018-09-22T06:05:10.163Z,99.90
2018-09-22T06:07:39.399Z,99.90
2018-09-22T06:10:08.622Z,99.90
2018-09-22T06:12:38.892Z,99.90
2018-09-22T06:15:08.303Z,99.90
2018-09-22T06:17:37.663Z,99.90
2018-09-22T06:20:08.915Z,99.90
2018-09-22T06:22:38.606Z,99.90
2018-09-22T06:25:07.959Z,99.90
2018-09-22T06:27:37.262Z,99.90
2018-09-22T06:30:06.677Z,99.90
2018-09-22T06:32:36.607Z,99.90
2018-09-22T06:35:06.138Z,99.90
2018-09-22T06:37:35.379Z,99.90
2018-09-22T06:40:05.378Z,99.90
2018-09-22T06:42:34.639Z,99.90
2018-09-22T06:45:05.217Z,99.90
2018-09-22T06:47:34.700Z,99.90
2018-09-22T06:50:04.155Z,99.90
2018-09-22T06:52:34.280Z,99.90
2018-09-22T06:55:04.157Z,99.90
2018-09-22T06:57:34.415Z,99.90
2018-09-22T07:00:03.632Z,99.90
2018-09-22T07:02:34.134Z,99.90
2018-09-22T07:05:03.487Z,99.90
2018-09-22T07:07:32.811Z,99.90
2018-09-22T07:10:02.548Z,99.90
2018-09-22T07:12:34.288Z,99.90
2018-09-22T07:15:06.131Z,99.90
2018-09-22T07:17:36.012Z,99.90
2018-09-22T07:20:06.268Z,99.90
2018-09-22T07:22:46.417Z,99.90
2018-09-22T07:25:18.201Z,99.90
2018-09-22T07:27:47.714Z,99.90
2018-09-22T07:30:22.356Z,99.90
2018-09-22T07:32:54.197Z,99.90
2018-09-22T07:35:35.010Z,99.90
2018-09-22T07:38:05.030Z,99.90
2018-09-22T07:40:36.791Z,99.90
2018-09-22T07:43:08.478Z,99.90
2018-09-22T07:45:39.815Z,99.90
2018-09-22T07:50:44.932Z,99.90
2018-09-22T07:53:15.947Z,99.90
2018-09-22T07:55:45.103Z,99.70
2018-09-22T07:58:14.879Z,99.20
2018-09-22T08:00:44.313Z,98.90
2018-09-22T08:03:14.289Z,98.30
2018-09-22T08:05:49.377Z,98.20
2018-09-22T08:08:19.656Z,98.00
2018-09-22T08:10:48.912Z,97.60
2018-09-22T08:13:18.170Z,97.20
2018-09-22T08:15:47.665Z,97.30
2018-09-22T08:18:17.138Z,96.50
2018-09-22T08:20:47.088Z,96.60
2018-09-22T08:23:16.868Z,96.30
2018-09-22T08:25:47.409Z,96.20
2018-09-22T08:28:19.286Z,96.20
2018-09-22T08:30:49.625Z,96.10
2018-09-22T08:33:20.505Z,95.90
2018-09-22T08:35:53.306Z,96.50
2018-09-22T08:38:23.711Z,96.10
2018-09-22T08:40:54.254Z,95.40
2018-09-22T08:43:26.859Z,95.50
2018-09-22T08:45:56.262Z,95.50
2018-09-22T08:49:30.570Z,95.00
2018-09-22T08:52:07.627Z,94.60
2018-09-22T08:54:40.315Z,94.60
2018-09-22T08:57:10.134Z,94.60
2018-09-22T08:59:42.874Z,93.20
2018-09-22T09:02:15.625Z,92.90
2018-09-22T09:04:50.004Z,92.40
2018-09-22T09:07:23.399Z,89.10
2018-09-22T09:09:58.896Z,85.00
2018-09-22T09:12:29.519Z,81.20
2018-09-22T09:15:03.445Z,78.70
2018-09-22T09:17:34.423Z,79.60
2018-09-22T09:20:05.875Z,82.80
2018-09-22T09:22:38.189Z,84.80
2018-09-22T09:25:08.576Z,80.90
2018-09-22T09:27:44.979Z,80.00
2018-09-22T09:30:45.840Z,76.30
2018-09-22T09:33:32.292Z,77.80
2018-09-22T09:36:09.779Z,77.50
2018-09-22T09:38:50.544Z,76.30
2018-09-22T09:41:20.172Z,72.40
2018-09-22T09:43:53.912Z,69.70
2018-09-22T09:46:25.242Z,61.80
2018-09-22T09:48:55.157Z,60.40
2018-09-22T09:51:42.945Z,63.50
2018-09-22T09:54:17.568Z,65.20
2018-09-22T09:56:52.060Z,61.30
2018-09-22T09:59:25.640Z,61.80
2018-09-22T10:02:01.948Z,60.10
2018-09-22T10:04:44.518Z,59.60
2018-09-22T10:07:16.564Z,58.10
2018-09-22T10:09:50.249Z,60.00
2018-09-22T10:12:24.858Z,60.50
2018-09-22T10:15:20.750Z,61.00
2018-09-22T10:17:55.827Z,61.20
2018-09-22T10:20:27.538Z,60.70
2018-09-22T10:23:05.155Z,58.80
2018-09-22T10:26:39.062Z,56.30
2018-09-22T10:29:12.260Z,56.70
2018-09-22T10:31:47.161Z,58.30
2018-09-22T10:34:19.400Z,58.00
2018-09-22T10:36:50.018Z,58.70
2018-09-22T10:39:22.181Z,60.60
2018-09-22T10:41:53.842Z,60.40
2018-09-22T10:44:41.100Z,62.90
2018-09-22T10:47:12.898Z,63.80
2018-09-22T10:50:51.956Z,67.00
2018-09-22T10:53:23.465Z,68.70
2018-09-22T10:56:26.693Z,67.10
2018-09-22T10:59:06.058Z,67.70
2018-09-22T11:01:50.690Z,67.90
2018-09-22T11:04:22.370Z,70.70
2018-09-22T11:06:54.643Z,72.20
2018-09-22T11:09:29.484Z,69.70
2018-09-22T11:12:02.570Z,71.10
2018-09-22T11:14:33.411Z,71.90
2018-09-22T11:17:04.623Z,71.10
2018-09-22T11:19:34.757Z,69.70
2018-09-22T11:22:06.782Z,70.60
2018-09-22T11:24:49.997Z,67.70
2018-09-22T11:27:39.566Z,68.40
2018-09-22T11:30:12.187Z,69.70
2018-09-22T11:32:43.575Z,71.50
2018-09-22T11:35:19.403Z,72.40
2018-09-22T11:37:49.245Z,72.40
2018-09-22T11:40:22.066Z,72.10
2018-09-22T11:42:54.422Z,72.60
2018-09-22T11:45:24.891Z,70.60
2018-09-22T11:47:58.462Z,68.60
2018-09-22T11:50:30.908Z,67.60
2018-09-22T11:53:01.924Z,66.10
2018-09-22T11:55:34.556Z,65.90
2018-09-22T11:58:10.638Z,65.00
2018-09-22T12:00:46.049Z,64.40
2018-09-22T12:03:18.169Z,60.90
2018-09-22T12:05:49.277Z,58.90
2018-09-22T12:08:20.400Z,57.30
2018-09-22T12:10:51.284Z,57.00
2018-09-22T12:13:25.237Z,58.90
2018-09-22T12:15:58.890Z,57.90
2018-09-22T12:18:29.701Z,58.40
2018-09-22T12:21:02.043Z,58.30
2018-09-22T12:23:32.257Z,57.60
2018-09-22T12:26:02.599Z,57.20
2018-09-22T12:28:33.131Z,56.80
2018-09-22T12:31:02.772Z,56.20
2018-09-22T12:33:33.777Z,56.10
2018-09-22T12:36:04.200Z,56.90
2018-09-22T12:38:35.348Z,57.10
2018-09-22T12:41:06.500Z,56.30
2018-09-22T12:43:37.996Z,57.00
2018-09-22T12:46:15.668Z,57.00
2018-09-22T12:48:45.017Z,56.60
2018-09-22T12:51:15.677Z,56.30
2018-09-22T12:53:46.004Z,56.80
2018-09-22T12:56:22.920Z,57.10
2018-09-22T12:58:59.938Z,57.50
2018-09-22T13:01:31.499Z,58.30
2018-09-22T13:04:01.950Z,58.90
2018-09-22T13:06:33.476Z,59.90
2018-09-22T13:09:08.245Z,60.40
2018-09-22T13:11:40.927Z,61.30
2018-09-22T13:14:11.227Z,64.00
2018-09-22T13:16:41.541Z,67.00
2018-09-22T13:19:14.980Z,80.10
2018-09-22T13:21:45.049Z,88.20
2018-09-22T13:24:16.901Z,91.20
2018-09-22T13:26:51.331Z,93.60
2018-09-22T13:29:20.900Z,95.10
2018-09-22T13:31:51.887Z,97.90
2018-09-22T13:34:23.041Z,99.90
2018-09-22T13:36:56.960Z,99.90
2018-09-22T13:39:27.823Z,99.90
2018-09-22T13:41:58.676Z,99.90
2018-09-22T13:47:17.430Z,99.90
2018-09-22T13:49:53.435Z,99.90
2018-09-22T13:52:29.434Z,99.90
2018-09-22T13:57:42.148Z,99.90
2018-09-22T14:00:14.529Z,99.90
2018-09-22T14:02:51.342Z,99.90
2018-09-22T14:05:35.218Z,99.90
2018-09-22T14:08:17.005Z,99.90
2018-09-22T14:10:48.528Z,99.90
2018-09-22T14:13:25.082Z,99.90
2018-09-22T14:16:07.266Z,99.90
2018-09-22T14:18:44.537Z,99.90
2018-09-22T14:21:14.667Z,99.90
2018-09-22T14:23:48.471Z,99.90
2018-09-22T14:26:18.570Z,99.90
2018-09-22T14:28:48.733Z,99.90
2018-09-22T14:31:20.819Z,99.90
2018-09-22T14:33:52.640Z,99.90
2018-09-22T14:36:25.955Z,99.90
2018-09-22T14:38:57.554Z,99.90
2018-09-22T14:41:30.918Z,99.90
2018-09-22T14:44:02.545Z,99.90
2018-09-22T14:46:35.896Z,99.90
2018-09-22T14:49:07.179Z,99.90
2018-09-22T14:51:38.166Z,99.90
2018-09-22T14:54:19.316Z,99.90
2018-09-22T14:56:51.420Z,99.90
2018-09-22T14:59:21.520Z,99.90
2018-09-22T15:01:56.826Z,99.90
2018-09-22T15:04:40.040Z,99.90
2018-09-22T15:07:12.130Z,99.90
2018-09-22T15:09:48.346Z,99.90
2018-09-22T15:12:24.494Z,99.90
2018-09-22T15:14:56.393Z,99.90
2018-09-22T15:17:27.644Z,99.90
2018-09-22T15:20:02.513Z,99.90
2018-09-22T15:22:34.730Z,99.90
2018-09-22T15:25:10.116Z,99.90
2018-09-22T15:27:42.747Z,99.90
2018-09-22T15:30:12.353Z,99.90
2018-09-22T15:32:42.696Z,99.90
2018-09-22T15:35:12.510Z,99.90
2018-09-22T15:37:44.453Z,99.90
2018-09-22T15:40:15.341Z,99.90
2018-09-22T15:42:50.582Z,99.90
2018-09-22T15:45:21.002Z,99.90
2018-09-22T15:47:59.809Z,99.90
2018-09-22T15:50:29.998Z,99.90
2018-09-22T15:53:09.800Z,99.90
2018-09-22T15:55:40.915Z,99.90
2018-09-22T15:58:11.342Z,99.90
2018-09-22T16:00:54.404Z,99.90
2018-09-22T16:03:24.362Z,99.90
2018-09-22T16:05:54.765Z,99.90
2018-09-22T16:08:25.530Z,99.90
2018-09-22T16:10:56.847Z,99.90
2018-09-22T16:13:28.302Z,99.90
2018-09-22T16:16:02.280Z,99.90
2018-09-22T16:18:32.158Z,99.90
2018-09-22T16:21:05.290Z,99.90
2018-09-22T16:23:35.218Z,99.90
2018-09-22T16:26:18.800Z,99.90
2018-09-22T16:28:56.478Z,99.90
2018-09-22T16:34:11.707Z,99.90
2018-09-22T16:36:45.549Z,99.90
2018-09-22T16:39:21.649Z,99.90
2018-09-22T16:41:57.036Z,99.90
2018-09-22T16:44:28.969Z,99.90
2018-09-22T16:47:02.133Z,99.90
2018-09-22T16:52:30.448Z,99.90
2018-09-22T16:55:03.473Z,99.90
2018-09-22T16:57:35.493Z,99.90
2018-09-22T17:00:05.464Z,99.90
2018-09-22T17:02:49.489Z,99.90
2018-09-22T17:05:29.180Z,99.90
2018-09-22T17:08:04.388Z,99.90
2018-09-22T17:10:46.577Z,99.90
2018-09-22T17:13:25.985Z,99.90
2018-09-22T17:16:04.089Z,99.90
2018-09-22T17:19:07.315Z,99.90
2018-09-22T17:21:42.422Z,99.90
2018-09-22T17:24:33.500Z,99.90
2018-09-22T17:27:08.639Z,99.90
2018-09-22T17:29:50.081Z,99.90
2018-09-22T17:35:09.298Z,99.90
2018-09-22T17:37:47.280Z,99.90
2018-09-22T17:40:36.962Z,99.90
2018-09-22T17:43:12.723Z,99.90
2018-09-22T17:46:09.021Z,99.90
2018-09-22T17:48:43.630Z,99.90
2018-09-22T17:51:20.997Z,99.90
2018-09-22T17:53:59.663Z,99.90
2018-09-22T17:56:42.104Z,99.90
2018-09-22T17:59:14.170Z,99.90
2018-09-22T18:02:02.882Z,99.90
2018-09-22T18:04:35.299Z,99.90
2018-09-22T18:07:13.457Z,99.90
2018-09-22T18:10:15.439Z,99.90
2018-09-22T18:13:01.243Z,99.90
2018-09-22T18:15:49.376Z,99.90
2018-09-22T18:22:01.744Z,99.90
2018-09-22T18:24:46.508Z,99.90
2018-09-22T18:27:25.574Z,99.90
2018-09-22T18:30:10.292Z,99.90
2018-09-22T18:32:44.168Z,99.90
2018-09-22T18:35:15.024Z,99.90
2018-09-22T18:37:56.930Z,99.90
2018-09-22T18:40:46.240Z,99.90
2018-09-22T18:43:35.113Z,99.90
2018-09-22T18:46:18.618Z,99.90
2018-09-22T18:48:55.345Z,99.90
2018-09-22T18:51:33.583Z,99.90
2018-09-22T18:54:11.088Z,99.90
2018-09-22T18:56:45.242Z,99.90
2018-09-22T18:59:29.446Z,99.90
2018-09-22T19:05:50.170Z,99.90
2018-09-22T19:11:17.112Z,99.90
2018-09-22T19:14:01.364Z,99.90
2018-09-22T19:17:37.008Z,99.90
2018-09-22T19:22:38.812Z,99.90
2018-09-22T19:25:21.280Z,99.90
2018-09-22T19:28:02.068Z,99.90
2018-09-22T19:30:53.479Z,99.90
2018-09-22T19:34:02.922Z,99.90
2018-09-22T19:37:45.048Z,99.90
2018-09-22T19:40:55.820Z,99.90
2018-09-22T19:45:50.461Z,99.90
2018-09-22T19:48:44.348Z,99.90
2018-09-22T19:51:19.513Z,99.90
2018-09-22T19:54:00.094Z,99.90
2018-09-22T19:56:32.399Z,99.90
2018-09-22T20:01:56.365Z,99.90
2018-09-22T20:04:29.676Z,99.90
2018-09-22T20:07:17.177Z,99.90
2018-09-22T20:10:09.146Z,99.90
2018-09-22T20:13:15.708Z,99.90
2018-09-22T20:15:48.179Z,99.90
2018-09-22T20:18:27.891Z,99.90
2018-09-22T20:21:05.455Z,99.90
2018-09-22T20:26:47.989Z,99.90
2018-09-22T20:29:23.656Z,99.90
2018-09-22T20:32:09.697Z,99.90
2018-09-22T20:34:48.227Z,99.90
2018-09-22T20:40:03.408Z,99.90
2018-09-22T20:42:50.888Z,99.90
2018-09-22T20:45:28.439Z,99.90
2018-09-22T20:47:59.518Z,99.90
2018-09-22T20:50:32.780Z,99.90
2018-09-22T20:53:06.451Z,99.90
2018-09-22T20:55:39.455Z,99.90
2018-09-22T20:58:40.634Z,99.90
2018-09-22T21:01:23.497Z,99.90
2018-09-22T21:03:54.106Z,99.90
2018-09-22T21:06:28.056Z,99.90
2018-09-22T21:09:00.114Z,99.90
2018-09-22T21:11:33.823Z,99.90
2018-09-22T21:14:12.470Z,99.90
2018-09-22T21:16:53.701Z,99.90
2018-09-22T21:19:32.747Z,99.90
2018-09-22T21:22:13.939Z,99.90
2018-09-22T21:24:55.883Z,99.90
2018-09-22T21:27:42.610Z,99.90
2018-09-22T21:30:22.450Z,99.90
2018-09-22T21:32:55.684Z,99.90
2018-09-22T21:35:27.676Z,99.90
2018-09-22T21:38:23.462Z,99.90
2018-09-22T21:41:06.290Z,99.90
2018-09-22T21:43:41.834Z,99.90
2018-09-22T21:46:15.851Z,99.90
2018-09-22T21:48:48.847Z,99.90
2018-09-22T21:51:39.484Z,99.90
2018-09-22T21:57:27.114Z,99.90
2018-09-22T21:59:59.968Z,99.90
2018-09-22T22:02:31.399Z,99.90
2018-09-22T22:05:01.812Z,99.90
2018-09-22T22:07:38.853Z,99.90
2018-09-22T22:10:18.795Z,99.90
2018-09-22T22:13:02.097Z,99.90
2018-09-22T22:15:46.618Z,99.90
2018-09-22T22:18:17.625Z,99.90
2018-09-22T22:20:50.396Z,99.90
2018-09-22T22:23:24.286Z,99.90
2018-09-22T22:25:55.717Z,99.90
2018-09-22T22:28:29.223Z,99.90
2018-09-22T22:31:03.344Z,99.90
2018-09-22T22:33:33.149Z,99.90
2018-09-22T22:39:51.286Z,99.90
2018-09-22T22:42:35.147Z,99.90
2018-09-22T22:45:13.023Z,99.90
2018-09-22T22:47:42.841Z,99.90
2018-09-22T22:50:16.375Z,99.90
2018-09-22T22:52:48.154Z,99.90
2018-09-22T22:55:18.027Z,99.90
2018-09-22T22:57:48.312Z,99.90
2018-09-22T23:00:23.032Z,99.90
2018-09-22T23:02:52.842Z,99.90
2018-09-22T23:05:23.805Z,99.90
2018-09-22T23:07:55.972Z,99.90
2018-09-22T23:10:35.381Z,99.90
2018-09-22T23:13:14.878Z,99.90
2018-09-22T23:15:47.595Z,99.90
2018-09-22T23:18:18.771Z,99.90
2018-09-22T23:20:58.860Z,99.90
2018-09-22T23:23:39.599Z,99.90
2018-09-22T23:26:21.024Z,99.90
2018-09-22T23:29:27.203Z,99.90
2018-09-22T23:32:15.396Z,99.90
2018-09-22T23:34:46.951Z,99.90
2018-09-22T23:37:20.405Z,99.90
2018-09-22T23:39:56.208Z,99.90
2018-09-22T23:42:29.365Z,99.90
2018-09-22T23:44:59.188Z,99.90
2018-09-22T23:47:29.862Z,99.90
2018-09-22T23:50:00.977Z,99.90
2018-09-22T23:52:31.062Z,99.90
2018-09-22T23:55:10.226Z,99.90
2018-09-22T23:57:45.019Z,99.90
